• Join FlightAware (Why Join?)
  • Login
  • US Flag 
10:35AM EDT


 

Airport Tracker/Info


-or-


 

Live Flight TrackerFlight Track Log ✈ RPA3228 ✈ 01-Nov-2013 ✈ KBNA - KDCA

Flight Track Log - Related Links

Times and Time Zones

All times are in EDT time to prevent confusion due to time zone crossing. See the RPA3228 flight status page for this flight to view local times or setup timezone preferences in your user account.

Time Position Orientation Groundspeed Altitude Reporting Facility
EDT Latitude Longitude Course Direction KTS MPH feet Rate Location/Type
07:05AM 36.1333 -86.6833 95° East 143 165 1,200  Level Nashville TRACON
07:05AM 36.1333 -86.7000 270° West 147 169 2,000 2,220 Climbing Nashville TRACON
07:06AM 36.1333 -86.7500 270° West 219 252 3,900 2,400 Climbing Nashville TRACON
07:07AM 36.2524 -86.2937 102° East  Level Estimated
07:07AM 36.0833 -86.7000 141° Southeast 309 356 6,900  Level Nashville TRACON
07:08AM 36.2938 -86.1683 90° East  Level Estimated
07:08AM 36.0833 -86.6000 90° East 329 379 9,900  Level Nashville TRACON
07:09AM 36.3350 -86.0427 104° East  Level Estimated
07:09AM 36.0739 -86.4433 94° East 374 430 13,100  Level Memphis Center
07:10AM 36.3761 -85.9170 95° East  Level Estimated
07:10AM 36.0717 -86.3100 91° East 379 436 15,800  Level Memphis Center
07:11AM 36.0711 -86.1714 90° East 393 452 18,700 2,460 Climbing Memphis Center
07:13AM 36.0606 -85.9189 93° East 461 531 22,700 2,160 Climbing Atlanta Center
07:14AM 36.0461 -85.7644 97° East 461 531 24,800 2,040 Climbing Atlanta Center
07:15AM 36.0358 -85.5972 94° East 466 536 26,800 1,860 Climbing Atlanta Center
07:16AM 36.0233 -85.4175 95° East 476 548 28,600 1,620 Climbing Atlanta Center
07:17AM 36.0108 -85.2428 95° East 488 562 30,100 1,380 Climbing Atlanta Center
07:18AM 35.9997 -85.0628 94° East 501 577 31,400 1,380 Climbing Atlanta Center
07:19AM 35.9867 -84.8831 95° East 517 595 32,900 1,260 Climbing Atlanta Center
07:20AM 35.9711 -84.7033 96° East 529 609 34,000 900 Climbing Atlanta Center
07:21AM 35.9550 -84.5286 96° East 523 602 34,800 1,080 Climbing Atlanta Center
07:22AM 35.9431 -84.3492 95° East 518 596 36,200 1,080 Climbing Atlanta Center
07:23AM 35.9269 -84.1747 96° East 518 596 37,000 360 Climbing Atlanta Center
07:24AM 35.9144 -84.0183 96° East 518 596 37,000  Level Atlanta Center
07:25AM 35.9081 -83.8389 92° East 518 596 37,000  Level Atlanta Center
07:26AM 35.9158 -83.6567 87° East 518 596 37,000  Level Atlanta Center
07:27AM 35.9256 -83.4747 86° East 524 603 37,000  Level Atlanta Center
07:28AM 35.9350 -83.2925 86° East 529 609 37,000  Level Atlanta Center
07:29AM 35.9400 -83.0897 88° East 536 617 37,000  Level Atlanta Center
07:30AM 35.9489 -82.9100 86° East 536 617 37,000  Level Atlanta Center
07:31AM 35.9575 -82.7306 87° East 531 611 37,000  Level Atlanta Center
07:32AM 35.9658 -82.5508 87° East 531 611 37,000  Level Atlanta Center
07:33AM 35.9719 -82.3736 88° East 525 604 37,000  Level Atlanta Center
07:34AM 35.9819 -82.1936 86° East 520 598 37,000  Level Atlanta Center
07:35AM 35.9894 -82.0164 87° East 520 598 37,000  Level Atlanta Center
07:36AM 35.9947 -81.8367 88° East 520 598 37,000  Level Atlanta Center
07:37AM 36.0039 -81.6594 86° East 520 598 37,000 -60 Level Atlanta Center
07:38AM 36.0086 -81.4819 88° East 520 598 36,900 -480 Descending Atlanta Center
07:39AM 36.0136 -81.3203 88° East 520 598 36,100 -900 Descending Atlanta Center
07:40AM 36.0178 -81.1403 88° East 520 598 35,100 -600 Descending Atlanta Center
07:41AM 36.0217 -80.9606 88° East 520 598 35,000 -300 Descending Atlanta Center
07:42AM 36.0253 -80.7781 89° East 520 598 34,600 -720 Descending Atlanta Center
07:43AM 36.0306 -80.5906 88° East 513 590 33,600 -540 Descending Atlanta Center
07:45AM 36.0381 -80.2517 88° East 520 598 33,000 -240 Descending Washington Center
07:46AM 36.0400 -80.0975 89° East 503 579 33,000  Level Washington Center
07:47AM 36.0778 -79.9200 75° East 478 550 33,000  Level Washington Center
07:48AM 36.1603 -79.7700 56° Northeast 532 612 33,000  Level Washington Center
07:49AM 36.2447 -79.6253 54° Northeast 527 606 33,000  Level Washington Center
07:50AM 36.3286 -79.4800 54° Northeast 527 606 33,000  Level Washington Center
07:51AM 36.4108 -79.3267 56° Northeast 527 606 33,000 -600 Level Washington Center
07:52AM 36.4925 -79.1806 55° Northeast 515 593 31,800 -1,980 Descending Washington Center
07:53AM 36.5781 -79.0372 53° Northeast 521 600 29,100 -2,820 Descending Washington Center
07:54AM 36.6594 -78.8906 55° Northeast 516 594 26,300 -2,100 Descending Washington Center
07:55AM 36.7253 -78.7639 57° Northeast 509 586 25,000 -660 Descending Washington Center
07:56AM 36.7997 -78.6319 55° Northeast 487 560 25,000 -540 Level Washington Center
07:57AM 36.9047 -78.5167 41° Northeast 450 518 24,000 -1,020 Descending Washington Center
07:58AM 37.0008 -78.4239 38° Northeast 444 511 23,000 -960 Descending Washington Center
07:59AM 37.0969 -78.3311 38° Northeast 438 504 22,100 -540 Descending Washington Center
08:00AM 37.1931 -78.2381 38° Northeast 432 497 22,000 -60 Descending Washington Center
08:01AM 37.2867 -78.1475 38° Northeast 432 497 22,000  Level Washington Center
08:02AM 37.3806 -78.0539 38° Northeast 426 490 22,000  Level Washington Center
08:03AM 37.4761 -77.9628 37° Northeast 426 490 22,000  Level Washington Center
08:04AM 37.5719 -77.8686 38° Northeast 426 490 22,000 -540 Level Washington Center
08:05AM 37.6675 -77.7772 37° Northeast 426 490 21,000 -1,320 Descending Washington Center
08:06AM 37.7586 -77.6853 39° Northeast 426 490 19,400 -1,740 Descending Washington Center
08:07AM 37.8478 -77.5958 38° Northeast 426 490 17,500 -1,680 Descending Washington Center
08:08AM 37.9411 -77.5033 38° Northeast 426 490 16,200 -1,560 Descending Washington Center
08:09AM 38.0322 -77.4186 36° Northeast 426 490 14,500 -1,680 Descending Washington Center
08:10AM 38.1189 -77.3311 38° Northeast 409 471 12,900 -1,560 Descending Washington Center
08:11AM 38.2056 -77.2458 38° Northeast 399 459 11,400 -1,500 Descending Washington Center
08:12AM 38.2903 -77.1578 39° Northeast 393 452 10,000 -720 Descending Washington Center
08:13AM 38.3886 -77.1386 North 363 418 10,000  Level Washington Center
08:14AM 38.4867 -77.1169 10° North 357 411 10,000  Level Washington Center
08:15AM 38.5850 -77.0950 10° North 352 405 10,000 -180 Level Washington Center
08:15AM 38.6500 -77.0833 North 332 382 9,700 -1,440 Descending Potomac TRACON
08:16AM 38.7333 -77.0667 North 321 369 7,700 -1,980 Descending Potomac TRACON
08:17AM 38.8167 -77.1000 343° North 288 331 6,000 -2,100 Descending Potomac TRACON
08:18AM 38.8667 -77.1500 322° Northwest 252 290 3,800 -1,620 Descending Potomac TRACON
08:19AM 38.9000 -77.2167 303° West 247 284 3,000 -420 Descending Potomac TRACON
08:20AM 38.9500 -77.2333 345° North 226 260 3,000  Level Potomac TRACON
08:21AM 38.9667 -77.1667 72° East 208 239 3,000 -420 Level Potomac TRACON
08:22AM 38.9333 -77.1167 131° Southeast 168 193 2,200 -900 Descending Potomac TRACON
08:23AM 38.9000 -77.0667 131° Southeast 139 160 1,200 -900 Descending Potomac TRACON
08:24AM 38.8833 -77.0500 142° Southeast 126 145 400 -840 Descending Potomac TRACON